sensor_id;sensor_type;location;lat;lon;timestamp;P1;durP1;ratioP1;P2;durP2;ratioP2
20988;SDS011;10653;47.052;15.410;2022-12-28T00:00:20;14.75;;;11.70;;
20988;SDS011;10653;47.052;15.410;2022-12-28T00:02:46;15.05;;;11.75;;
20988;SDS011;10653;47.052;15.410;2022-12-28T00:05:12;13.30;;;10.90;;
20988;SDS011;10653;47.052;15.410;2022-12-28T00:07:38;12.45;;;10.98;;
20988;SDS011;10653;47.052;15.410;2022-12-28T00:10:04;13.00;;;11.60;;
20988;SDS011;10653;47.052;15.410;2022-12-28T00:12:31;16.27;;;12.25;;
20988;SDS011;10653;47.052;15.410;2022-12-28T00:14:57;18.08;;;12.38;;
20988;SDS011;10653;47.052;15.410;2022-12-28T00:17:23;13.35;;;11.32;;
20988;SDS011;10653;47.052;15.410;2022-12-28T00:19:49;13.55;;;12.10;;
20988;SDS011;10653;47.052;15.410;2022-12-28T00:22:15;16.57;;;11.00;;
20988;SDS011;10653;47.052;15.410;2022-12-28T00:24:41;14.63;;;11.30;;
20988;SDS011;10653;47.052;15.410;2022-12-28T00:27:07;15.27;;;11.60;;
20988;SDS011;10653;47.052;15.410;2022-12-28T00:29:33;12.07;;;9.90;;
20988;SDS011;10653;47.052;15.410;2022-12-28T00:31:59;18.27;;;12.77;;
20988;SDS011;10653;47.052;15.410;2022-12-28T00:34:26;15.75;;;11.00;;
20988;SDS011;10653;47.052;15.410;2022-12-28T00:36:52;12.68;;;10.25;;
20988;SDS011;10653;47.052;15.410;2022-12-28T00:39:18;13.60;;;10.23;;
20988;SDS011;10653;47.052;15.410;2022-12-28T00:41:44;13.50;;;10.10;;
20988;SDS011;10653;47.052;15.410;2022-12-28T00:44:10;11.32;;;9.52;;
20988;SDS011;10653;47.052;15.410;2022-12-28T00:46:36;16.27;;;11.70;;
20988;SDS011;10653;47.052;15.410;2022-12-28T00:49:02;11.13;;;8.93;;
20988;SDS011;10653;47.052;15.410;2022-12-28T00:51:28;13.43;;;9.67;;
20988;SDS011;10653;47.052;15.410;2022-12-28T00:53:54;13.68;;;10.55;;
20988;SDS011;10653;47.052;15.410;2022-12-28T00:56:21;13.45;;;10.27;;
20988;SDS011;10653;47.052;15.410;2022-12-28T00:58:47;11.68;;;9.55;;
20988;SDS011;10653;47.052;15.410;2022-12-28T01:01:17;12.97;;;9.80;;
20988;SDS011;10653;47.052;15.410;2022-12-28T01:03:44;14.10;;;10.40;;
20988;SDS011;10653;47.052;15.410;2022-12-28T01:06:11;14.43;;;9.95;;
20988;SDS011;10653;47.052;15.410;2022-12-28T01:08:37;11.25;;;9.30;;
20988;SDS011;10653;47.052;15.410;2022-12-28T01:11:08;11.77;;;9.13;;
20988;SDS011;10653;47.052;15.410;2022-12-28T01:13:35;9.70;;;7.47;;
20988;SDS011;10653;47.052;15.410;2022-12-28T01:18:39;8.90;;;7.83;;
20988;SDS011;10653;47.052;15.410;2022-12-28T01:21:12;11.03;;;9.20;;
20988;SDS011;10653;47.052;15.410;2022-12-28T01:23:39;11.57;;;7.87;;
20988;SDS011;10653;47.052;15.410;2022-12-28T01:26:05;12.73;;;7.37;;
20988;SDS011;10653;47.052;15.410;2022-12-28T01:28:32;9.70;;;7.60;;
20988;SDS011;10653;47.052;15.410;2022-12-28T01:31:02;9.83;;;7.20;;
20988;SDS011;10653;47.052;15.410;2022-12-28T01:33:28;8.73;;;6.75;;
20988;SDS011;10653;47.052;15.410;2022-12-28T01:35:54;8.67;;;7.80;;
20988;SDS011;10653;47.052;15.410;2022-12-28T01:38:20;8.80;;;6.95;;
20988;SDS011;10653;47.052;15.410;2022-12-28T01:40:46;8.48;;;7.25;;
20988;SDS011;10653;47.052;15.410;2022-12-28T01:43:12;9.97;;;8.10;;
20988;SDS011;10653;47.052;15.410;2022-12-28T01:45:39;8.95;;;7.30;;
20988;SDS011;10653;47.052;15.410;2022-12-28T01:48:07;8.37;;;7.50;;
20988;SDS011;10653;47.052;15.410;2022-12-28T01:50:40;8.77;;;7.97;;
20988;SDS011;10653;47.052;15.410;2022-12-28T01:53:07;8.80;;;7.90;;
20988;SDS011;10653;47.052;15.410;2022-12-28T01:55:34;11.55;;;9.32;;
20988;SDS011;10653;47.052;15.410;2022-12-28T02:00:27;11.18;;;8.80;;
20988;SDS011;10653;47.052;15.410;2022-12-28T02:02:55;10.65;;;8.70;;
20988;SDS011;10653;47.052;15.410;2022-12-28T02:05:23;11.52;;;9.32;;
20988;SDS011;10653;47.052;15.410;2022-12-28T02:07:52;10.10;;;7.80;;
20988;SDS011;10653;47.052;15.410;2022-12-28T02:10:20;11.57;;;8.02;;
20988;SDS011;10653;47.052;15.410;2022-12-28T02:12:46;10.93;;;8.50;;
20988;SDS011;10653;47.052;15.410;2022-12-28T02:15:12;8.73;;;6.80;;
20988;SDS011;10653;47.052;15.410;2022-12-28T02:17:38;11.95;;;7.90;;
20988;SDS011;10653;47.052;15.410;2022-12-28T02:20:05;10.02;;;8.35;;
20988;SDS011;10653;47.052;15.410;2022-12-28T02:22:54;10.20;;;8.23;;
20988;SDS011;10653;47.052;15.410;2022-12-28T02:31:01;11.80;;;8.48;;
20988;SDS011;10653;47.052;15.410;2022-12-28T02:33:35;9.70;;;8.25;;
20988;SDS011;10653;47.052;15.410;2022-12-28T02:36:07;9.38;;;7.55;;
20988;SDS011;10653;47.052;15.410;2022-12-28T02:38:39;7.80;;;7.00;;
20988;SDS011;10653;47.052;15.410;2022-12-28T02:41:14;8.48;;;7.63;;
20988;SDS011;10653;47.052;15.410;2022-12-28T02:43:42;9.57;;;7.55;;
20988;SDS011;10653;47.052;15.410;2022-12-28T02:46:09;9.50;;;8.32;;
20988;SDS011;10653;47.052;15.410;2022-12-28T02:48:54;11.32;;;8.18;;
20988;SDS011;10653;47.052;15.410;2022-12-28T02:52:06;10.48;;;7.68;;
20988;SDS011;10653;47.052;15.410;2022-12-28T03:00:04;9.90;;;8.53;;
20988;SDS011;10653;47.052;15.410;2022-12-28T03:05:08;8.88;;;7.97;;
20988;SDS011;10653;47.052;15.410;2022-12-28T03:07:58;11.98;;;9.38;;
20988;SDS011;10653;47.052;15.410;2022-12-28T03:11:03;9.88;;;8.77;;
20988;SDS011;10653;47.052;15.410;2022-12-28T03:13:33;10.57;;;8.52;;
20988;SDS011;10653;47.052;15.410;2022-12-28T03:16:18;12.13;;;8.35;;
20988;SDS011;10653;47.052;15.410;2022-12-28T03:18:46;8.85;;;7.60;;
20988;SDS011;10653;47.052;15.410;2022-12-28T03:21:32;8.93;;;8.02;;
20988;SDS011;10653;47.052;15.410;2022-12-28T03:24:17;8.63;;;7.72;;
20988;SDS011;10653;47.052;15.410;2022-12-28T03:27:05;9.00;;;8.05;;
20988;SDS011;10653;47.052;15.410;2022-12-28T03:29:54;8.00;;;7.30;;
20988;SDS011;10653;47.052;15.410;2022-12-28T03:32:39;6.90;;;6.20;;
20988;SDS011;10653;47.052;15.410;2022-12-28T03:35:05;10.60;;;7.28;;
20988;SDS011;10653;47.052;15.410;2022-12-28T03:37:33;10.85;;;8.57;;
20988;SDS011;10653;47.052;15.410;2022-12-28T03:42:33;9.60;;;7.23;;
20988;SDS011;10653;47.052;15.410;2022-12-28T03:45:23;9.25;;;6.80;;
20988;SDS011;10653;47.052;15.410;2022-12-28T03:47:50;8.65;;;7.63;;
20988;SDS011;10653;47.052;15.410;2022-12-28T03:50:17;10.95;;;8.70;;
20988;SDS011;10653;47.052;15.410;2022-12-28T03:52:44;9.27;;;7.45;;
20988;SDS011;10653;47.052;15.410;2022-12-28T03:55:13;10.98;;;8.05;;
20988;SDS011;10653;47.052;15.410;2022-12-28T03:57:40;11.60;;;8.82;;
20988;SDS011;10653;47.052;15.410;2022-12-28T04:00:06;9.07;;;7.30;;
20988;SDS011;10653;47.052;15.410;2022-12-28T04:02:36;10.00;;;8.38;;
20988;SDS011;10653;47.052;15.410;2022-12-28T04:05:03;8.93;;;6.97;;
20988;SDS011;10653;47.052;15.410;2022-12-28T04:07:29;7.70;;;6.35;;
20988;SDS011;10653;47.052;15.410;2022-12-28T04:09:55;7.20;;;5.90;;
20988;SDS011;10653;47.052;15.410;2022-12-28T04:12:21;8.07;;;7.00;;
20988;SDS011;10653;47.052;15.410;2022-12-28T04:14:47;6.43;;;5.78;;
20988;SDS011;10653;47.052;15.410;2022-12-28T04:17:13;14.05;;;9.68;;
20988;SDS011;10653;47.052;15.410;2022-12-28T04:19:39;10.43;;;9.23;;
20988;SDS011;10653;47.052;15.410;2022-12-28T04:22:05;13.13;;;9.82;;
20988;SDS011;10653;47.052;15.410;2022-12-28T04:24:31;16.48;;;11.80;;
20988;SDS011;10653;47.052;15.410;2022-12-28T04:26:57;13.73;;;10.18;;
20988;SDS011;10653;47.052;15.410;2022-12-28T04:29:23;12.57;;;8.68;;
20988;SDS011;10653;47.052;15.410;2022-12-28T04:31:49;9.30;;;7.80;;
20988;SDS011;10653;47.052;15.410;2022-12-28T04:34:15;9.70;;;7.43;;
20988;SDS011;10653;47.052;15.410;2022-12-28T04:36:41;9.15;;;8.13;;
20988;SDS011;10653;47.052;15.410;2022-12-28T04:39:07;12.02;;;9.15;;
20988;SDS011;10653;47.052;15.410;2022-12-28T04:41:33;9.73;;;7.88;;
20988;SDS011;10653;47.052;15.410;2022-12-28T04:44:00;8.02;;;7.22;;
20988;SDS011;10653;47.052;15.410;2022-12-28T04:46:26;9.00;;;7.70;;
20988;SDS011;10653;47.052;15.410;2022-12-28T04:48:52;6.82;;;6.22;;
20988;SDS011;10653;47.052;15.410;2022-12-28T04:51:19;8.50;;;7.43;;
20988;SDS011;10653;47.052;15.410;2022-12-28T04:53:45;7.85;;;6.95;;
20988;SDS011;10653;47.052;15.410;2022-12-28T04:56:12;8.02;;;7.20;;
20988;SDS011;10653;47.052;15.410;2022-12-28T04:58:38;9.23;;;6.97;;
20988;SDS011;10653;47.052;15.410;2022-12-28T05:01:05;8.43;;;7.50;;
20988;SDS011;10653;47.052;15.410;2022-12-28T05:03:31;9.55;;;7.70;;
20988;SDS011;10653;47.052;15.410;2022-12-28T05:06:01;9.95;;;8.95;;
20988;SDS011;10653;47.052;15.410;2022-12-28T05:08:29;9.80;;;8.80;;
20988;SDS011;10653;47.052;15.410;2022-12-28T05:10:58;11.60;;;10.40;;
20988;SDS011;10653;47.052;15.410;2022-12-28T05:13:24;9.50;;;8.55;;
20988;SDS011;10653;47.052;15.410;2022-12-28T05:15:50;9.57;;;8.60;;
20988;SDS011;10653;47.052;15.410;2022-12-28T05:18:16;13.50;;;9.00;;
20988;SDS011;10653;47.052;15.410;2022-12-28T05:20:42;9.82;;;8.30;;
20988;SDS011;10653;47.052;15.410;2022-12-28T05:23:08;10.45;;;8.90;;
20988;SDS011;10653;47.052;15.410;2022-12-28T05:25:34;10.32;;;8.80;;
20988;SDS011;10653;47.052;15.410;2022-12-28T05:28:00;11.10;;;8.40;;
20988;SDS011;10653;47.052;15.410;2022-12-28T05:30:26;12.10;;;8.80;;
20988;SDS011;10653;47.052;15.410;2022-12-28T05:32:52;10.25;;;9.10;;
20988;SDS011;10653;47.052;15.410;2022-12-28T05:35:18;11.90;;;9.80;;
20988;SDS011;10653;47.052;15.410;2022-12-28T05:37:44;12.57;;;9.98;;
20988;SDS011;10653;47.052;15.410;2022-12-28T05:40:10;11.35;;;9.52;;
20988;SDS011;10653;47.052;15.410;2022-12-28T05:42:36;10.10;;;8.70;;
20988;SDS011;10653;47.052;15.410;2022-12-28T05:45:02;9.60;;;8.60;;
20988;SDS011;10653;47.052;15.410;2022-12-28T05:47:28;12.25;;;10.80;;
20988;SDS011;10653;47.052;15.410;2022-12-28T05:49:54;11.65;;;10.35;;
20988;SDS011;10653;47.052;15.410;2022-12-28T05:52:20;10.60;;;9.32;;
20988;SDS011;10653;47.052;15.410;2022-12-28T05:54:46;11.40;;;10.20;;
20988;SDS011;10653;47.052;15.410;2022-12-28T05:57:12;14.77;;;11.02;;
20988;SDS011;10653;47.052;15.410;2022-12-28T05:59:38;9.57;;;8.60;;
20988;SDS011;10653;47.052;15.410;2022-12-28T06:02:04;10.45;;;9.27;;
20988;SDS011;10653;47.052;15.410;2022-12-28T06:04:30;10.40;;;9.40;;
20988;SDS011;10653;47.052;15.410;2022-12-28T06:06:56;22.00;;;12.80;;
20988;SDS011;10653;47.052;15.410;2022-12-28T06:09:22;13.75;;;11.15;;
20988;SDS011;10653;47.052;15.410;2022-12-28T06:11:48;11.43;;;9.80;;
20988;SDS011;10653;47.052;15.410;2022-12-28T06:14:14;11.93;;;8.93;;
20988;SDS011;10653;47.052;15.410;2022-12-28T06:16:40;10.10;;;9.05;;
20988;SDS011;10653;47.052;15.410;2022-12-28T06:19:08;12.82;;;10.70;;
20988;SDS011;10653;47.052;15.410;2022-12-28T06:21:35;12.75;;;10.65;;
20988;SDS011;10653;47.052;15.410;2022-12-28T06:24:01;11.52;;;10.05;;
20988;SDS011;10653;47.052;15.410;2022-12-28T06:26:29;12.15;;;9.73;;
20988;SDS011;10653;47.052;15.410;2022-12-28T06:28:55;11.00;;;8.68;;
20988;SDS011;10653;47.052;15.410;2022-12-28T06:31:25;10.50;;;8.85;;
20988;SDS011;10653;47.052;15.410;2022-12-28T06:33:52;11.32;;;8.88;;
20988;SDS011;10653;47.052;15.410;2022-12-28T06:36:28;10.10;;;8.75;;
20988;SDS011;10653;47.052;15.410;2022-12-28T06:38:55;11.15;;;8.43;;
20988;SDS011;10653;47.052;15.410;2022-12-28T06:41:22;12.80;;;11.55;;
20988;SDS011;10653;47.052;15.410;2022-12-28T06:43:49;22.38;;;20.38;;
20988;SDS011;10653;47.052;15.410;2022-12-28T06:46:15;17.27;;;15.60;;
20988;SDS011;10653;47.052;15.410;2022-12-28T06:48:42;17.83;;;15.93;;
20988;SDS011;10653;47.052;15.410;2022-12-28T06:53:37;16.10;;;14.40;;
20988;SDS011;10653;47.052;15.410;2022-12-28T06:56:04;14.18;;;12.20;;
20988;SDS011;10653;47.052;15.410;2022-12-28T06:58:30;15.23;;;13.20;;
20988;SDS011;10653;47.052;15.410;2022-12-28T07:01:02;14.98;;;12.65;;
20988;SDS011;10653;47.052;15.410;2022-12-28T07:03:30;14.77;;;11.90;;
20988;SDS011;10653;47.052;15.410;2022-12-28T07:05:58;16.25;;;12.73;;
20988;SDS011;10653;47.052;15.410;2022-12-28T07:08:25;30.85;;;23.83;;
20988;SDS011;10653;47.052;15.410;2022-12-28T07:10:51;25.13;;;17.92;;
20988;SDS011;10653;47.052;15.410;2022-12-28T07:13:17;19.67;;;13.20;;
20988;SDS011;10653;47.052;15.410;2022-12-28T07:15:43;14.02;;;11.38;;
20988;SDS011;10653;47.052;15.410;2022-12-28T07:18:09;10.40;;;9.27;;
20988;SDS011;10653;47.052;15.410;2022-12-28T07:20:35;13.82;;;10.45;;
20988;SDS011;10653;47.052;15.410;2022-12-28T07:23:01;13.73;;;10.77;;
20988;SDS011;10653;47.052;15.410;2022-12-28T07:25:27;11.95;;;10.70;;
20988;SDS011;10653;47.052;15.410;2022-12-28T07:27:53;12.23;;;10.93;;
20988;SDS011;10653;47.052;15.410;2022-12-28T07:30:19;12.25;;;10.85;;
20988;SDS011;10653;47.052;15.410;2022-12-28T07:32:45;11.98;;;9.85;;
20988;SDS011;10653;47.052;15.410;2022-12-28T07:35:11;12.25;;;10.45;;
20988;SDS011;10653;47.052;15.410;2022-12-28T07:37:37;13.45;;;10.20;;
20988;SDS011;10653;47.052;15.410;2022-12-28T07:40:04;11.40;;;10.15;;
20988;SDS011;10653;47.052;15.410;2022-12-28T07:42:30;11.05;;;9.27;;
20988;SDS011;10653;47.052;15.410;2022-12-28T07:44:56;10.77;;;9.65;;
20988;SDS011;10653;47.052;15.410;2022-12-28T07:47:22;11.07;;;9.32;;
20988;SDS011;10653;47.052;15.410;2022-12-28T07:49:48;9.52;;;8.52;;
20988;SDS011;10653;47.052;15.410;2022-12-28T07:52:14;10.63;;;8.38;;
20988;SDS011;10653;47.052;15.410;2022-12-28T07:54:40;14.50;;;10.63;;
20988;SDS011;10653;47.052;15.410;2022-12-28T07:57:06;10.25;;;9.15;;
20988;SDS011;10653;47.052;15.410;2022-12-28T07:59:32;13.48;;;12.13;;
20988;SDS011;10653;47.052;15.410;2022-12-28T08:01:58;12.83;;;9.17;;
20988;SDS011;10653;47.052;15.410;2022-12-28T08:04:24;9.95;;;8.50;;
20988;SDS011;10653;47.052;15.410;2022-12-28T08:06:50;11.93;;;9.00;;
20988;SDS011;10653;47.052;15.410;2022-12-28T08:09:16;11.25;;;9.52;;
20988;SDS011;10653;47.052;15.410;2022-12-28T08:11:43;9.45;;;8.48;;
20988;SDS011;10653;47.052;15.410;2022-12-28T08:14:09;10.52;;;9.00;;
20988;SDS011;10653;47.052;15.410;2022-12-28T08:16:37;11.02;;;9.10;;
20988;SDS011;10653;47.052;15.410;2022-12-28T08:19:04;10.85;;;9.73;;
20988;SDS011;10653;47.052;15.410;2022-12-28T08:21:31;9.43;;;8.52;;
20988;SDS011;10653;47.052;15.410;2022-12-28T08:23:58;12.80;;;10.27;;
20988;SDS011;10653;47.052;15.410;2022-12-28T08:26:25;10.20;;;8.90;;
20988;SDS011;10653;47.052;15.410;2022-12-28T08:28:52;11.52;;;9.35;;
20988;SDS011;10653;47.052;15.410;2022-12-28T08:31:29;12.38;;;9.85;;
20988;SDS011;10653;47.052;15.410;2022-12-28T08:33:55;11.40;;;9.13;;
20988;SDS011;10653;47.052;15.410;2022-12-28T08:36:22;11.27;;;9.05;;
20988;SDS011;10653;47.052;15.410;2022-12-28T08:38:48;10.68;;;9.57;;
20988;SDS011;10653;47.052;15.410;2022-12-28T08:41:15;10.85;;;9.38;;
20988;SDS011;10653;47.052;15.410;2022-12-28T08:43:42;10.10;;;9.10;;
20988;SDS011;10653;47.052;15.410;2022-12-28T08:48:37;9.93;;;9.07;;
20988;SDS011;10653;47.052;15.410;2022-12-28T08:51:07;9.32;;;8.35;;
20988;SDS011;10653;47.052;15.410;2022-12-28T08:53:33;9.30;;;8.10;;
20988;SDS011;10653;47.052;15.410;2022-12-28T08:56:10;10.30;;;8.93;;
20988;SDS011;10653;47.052;15.410;2022-12-28T08:58:36;10.32;;;9.23;;
20988;SDS011;10653;47.052;15.410;2022-12-28T09:01:04;10.73;;;9.02;;
20988;SDS011;10653;47.052;15.410;2022-12-28T09:03:30;10.68;;;8.90;;
20988;SDS011;10653;47.052;15.410;2022-12-28T09:05:56;11.67;;;8.43;;
20988;SDS011;10653;47.052;15.410;2022-12-28T09:08:22;7.93;;;7.13;;
20988;SDS011;10653;47.052;15.410;2022-12-28T09:10:48;9.88;;;7.90;;
20988;SDS011;10653;47.052;15.410;2022-12-28T09:13:14;11.43;;;8.43;;
20988;SDS011;10653;47.052;15.410;2022-12-28T09:15:40;10.37;;;9.30;;
20988;SDS011;10653;47.052;15.410;2022-12-28T09:18:06;11.63;;;9.70;;
20988;SDS011;10653;47.052;15.410;2022-12-28T09:20:33;11.57;;;9.20;;
20988;SDS011;10653;47.052;15.410;2022-12-28T09:22:59;10.10;;;9.15;;
20988;SDS011;10653;47.052;15.410;2022-12-28T09:25:28;12.93;;;10.05;;
20988;SDS011;10653;47.052;15.410;2022-12-28T09:27:54;10.20;;;9.20;;
20988;SDS011;10653;47.052;15.410;2022-12-28T09:30:20;11.87;;;9.37;;
20988;SDS011;10653;47.052;15.410;2022-12-28T09:32:46;9.93;;;8.65;;
20988;SDS011;10653;47.052;15.410;2022-12-28T09:35:32;9.73;;;8.73;;
20988;SDS011;10653;47.052;15.410;2022-12-28T09:37:58;10.25;;;9.20;;
20988;SDS011;10653;47.052;15.410;2022-12-28T09:40:24;10.50;;;9.15;;
20988;SDS011;10653;47.052;15.410;2022-12-28T09:42:50;9.75;;;8.73;;
20988;SDS011;10653;47.052;15.410;2022-12-28T09:45:16;12.25;;;9.60;;
20988;SDS011;10653;47.052;15.410;2022-12-28T09:47:47;11.00;;;9.07;;
20988;SDS011;10653;47.052;15.410;2022-12-28T09:55:39;11.50;;;8.27;;
20988;SDS011;10653;47.052;15.410;2022-12-28T09:58:13;11.63;;;8.80;;
20988;SDS011;10653;47.052;15.410;2022-12-28T10:00:44;12.47;;;8.73;;
20988;SDS011;10653;47.052;15.410;2022-12-28T10:05:51;9.40;;;7.63;;
20988;SDS011;10653;47.052;15.410;2022-12-28T10:08:19;10.70;;;7.60;;
20988;SDS011;10653;47.052;15.410;2022-12-28T10:10:46;9.90;;;7.87;;
20988;SDS011;10653;47.052;15.410;2022-12-28T10:13:33;9.63;;;7.70;;
20988;SDS011;10653;47.052;15.410;2022-12-28T10:15:59;7.83;;;7.00;;
20988;SDS011;10653;47.052;15.410;2022-12-28T10:18:26;7.90;;;7.00;;
20988;SDS011;10653;47.052;15.410;2022-12-28T10:20:52;10.70;;;6.43;;
20988;SDS011;10653;47.052;15.410;2022-12-28T10:23:23;8.77;;;6.60;;
20988;SDS011;10653;47.052;15.410;2022-12-28T10:25:51;6.87;;;5.70;;
20988;SDS011;10653;47.052;15.410;2022-12-28T10:28:18;7.17;;;5.97;;
20988;SDS011;10653;47.052;15.410;2022-12-28T10:30:46;8.03;;;5.20;;
20988;SDS011;10653;47.052;15.410;2022-12-28T10:33:17;7.53;;;5.83;;
20988;SDS011;10653;47.052;15.410;2022-12-28T10:35:50;6.00;;;5.07;;
20988;SDS011;10653;47.052;15.410;2022-12-28T10:38:27;7.43;;;6.37;;
20988;SDS011;10653;47.052;15.410;2022-12-28T10:40:57;9.30;;;6.40;;
20988;SDS011;10653;47.052;15.410;2022-12-28T10:43:25;6.70;;;5.53;;
20988;SDS011;10653;47.052;15.410;2022-12-28T10:45:52;7.87;;;6.70;;
20988;SDS011;10653;47.052;15.410;2022-12-28T10:48:20;6.80;;;5.47;;
20988;SDS011;10653;47.052;15.410;2022-12-28T10:50:54;7.70;;;5.43;;
20988;SDS011;10653;47.052;15.410;2022-12-28T10:56:02;9.80;;;7.00;;
20988;SDS011;10653;47.052;15.410;2022-12-28T10:58:29;7.53;;;5.73;;
20988;SDS011;10653;47.052;15.410;2022-12-28T11:00:56;14.03;;;5.37;;
20988;SDS011;10653;47.052;15.410;2022-12-28T11:03:23;9.23;;;6.10;;
20988;SDS011;10653;47.052;15.410;2022-12-28T11:05:49;14.37;;;7.20;;
20988;SDS011;10653;47.052;15.410;2022-12-28T11:08:15;8.10;;;6.37;;
20988;SDS011;10653;47.052;15.410;2022-12-28T11:10:41;9.50;;;6.90;;
20988;SDS011;10653;47.052;15.410;2022-12-28T11:13:12;8.93;;;6.60;;
20988;SDS011;10653;47.052;15.410;2022-12-28T11:15:41;7.60;;;5.80;;
20988;SDS011;10653;47.052;15.410;2022-12-28T11:18:14;9.77;;;6.43;;
20988;SDS011;10653;47.052;15.410;2022-12-28T11:20:45;6.20;;;5.23;;
20988;SDS011;10653;47.052;15.410;2022-12-28T11:23:15;8.73;;;6.00;;
20988;SDS011;10653;47.052;15.410;2022-12-28T11:25:42;6.23;;;5.03;;
20988;SDS011;10653;47.052;15.410;2022-12-28T11:28:13;7.00;;;5.27;;
20988;SDS011;10653;47.052;15.410;2022-12-28T11:30:40;8.30;;;6.07;;
20988;SDS011;10653;47.052;15.410;2022-12-28T11:33:06;5.83;;;5.33;;
20988;SDS011;10653;47.052;15.410;2022-12-28T11:35:46;7.37;;;5.17;;
20988;SDS011;10653;47.052;15.410;2022-12-28T11:38:35;9.50;;;4.90;;
20988;SDS011;10653;47.052;15.410;2022-12-28T11:40:59;7.50;;;5.07;;
20988;SDS011;10653;47.052;15.410;2022-12-28T11:46:01;5.70;;;5.10;;
20988;SDS011;10653;47.052;15.410;2022-12-28T11:53:51;7.40;;;5.80;;
20988;SDS011;10653;47.052;15.410;2022-12-28T11:56:18;8.60;;;5.90;;
20988;SDS011;10653;47.052;15.410;2022-12-28T12:11:53;6.77;;;5.00;;
20988;SDS011;10653;47.052;15.410;2022-12-28T12:14:23;8.40;;;5.03;;
20988;SDS011;10653;47.052;15.410;2022-12-28T12:17:11;8.63;;;6.07;;
20988;SDS011;10653;47.052;15.410;2022-12-28T12:19:38;7.57;;;6.30;;
20988;SDS011;10653;47.052;15.410;2022-12-28T12:22:51;8.17;;;5.13;;
20988;SDS011;10653;47.052;15.410;2022-12-28T12:30:33;5.87;;;5.10;;
20988;SDS011;10653;47.052;15.410;2022-12-28T12:35:12;6.93;;;4.50;;
20988;SDS011;10653;47.052;15.410;2022-12-28T12:48:31;7.60;;;6.40;;
20988;SDS011;10653;47.052;15.410;2022-12-28T12:51:19;7.90;;;6.17;;
20988;SDS011;10653;47.052;15.410;2022-12-28T12:53:50;8.20;;;5.57;;
20988;SDS011;10653;47.052;15.410;2022-12-28T12:56:37;8.20;;;4.97;;
20988;SDS011;10653;47.052;15.410;2022-12-28T13:04:22;8.03;;;5.77;;
20988;SDS011;10653;47.052;15.410;2022-12-28T13:06:50;13.20;;;9.80;;
20988;SDS011;10653;47.052;15.410;2022-12-28T13:09:19;9.43;;;5.97;;
20988;SDS011;10653;47.052;15.410;2022-12-28T13:11:45;10.47;;;6.27;;
20988;SDS011;10653;47.052;15.410;2022-12-28T13:14:16;8.40;;;5.40;;
20988;SDS011;10653;47.052;15.410;2022-12-28T13:16:45;6.67;;;5.60;;
20988;SDS011;10653;47.052;15.410;2022-12-28T13:19:15;9.13;;;5.90;;
20988;SDS011;10653;47.052;15.410;2022-12-28T13:21:44;7.23;;;5.73;;
20988;SDS011;10653;47.052;15.410;2022-12-28T13:26:51;7.60;;;5.50;;
20988;SDS011;10653;47.052;15.410;2022-12-28T13:29:18;6.23;;;5.40;;
20988;SDS011;10653;47.052;15.410;2022-12-28T13:31:45;6.80;;;5.00;;
20988;SDS011;10653;47.052;15.410;2022-12-28T13:36:50;5.93;;;5.30;;
20988;SDS011;10653;47.052;15.410;2022-12-28T13:39:22;4.83;;;4.40;;
20988;SDS011;10653;47.052;15.410;2022-12-28T13:41:52;10.23;;;5.07;;
20988;SDS011;10653;47.052;15.410;2022-12-28T13:46:52;5.20;;;4.80;;
20988;SDS011;10653;47.052;15.410;2022-12-28T13:49:20;6.10;;;5.20;;
20988;SDS011;10653;47.052;15.410;2022-12-28T13:51:46;6.73;;;5.80;;
20988;SDS011;10653;47.052;15.410;2022-12-28T13:54:14;6.37;;;5.23;;
20988;SDS011;10653;47.052;15.410;2022-12-28T13:56:40;5.30;;;4.67;;
20988;SDS011;10653;47.052;15.410;2022-12-28T13:59:08;5.93;;;4.70;;
20988;SDS011;10653;47.052;15.410;2022-12-28T14:01:37;6.00;;;5.40;;
20988;SDS011;10653;47.052;15.410;2022-12-28T14:04:09;6.40;;;5.50;;
20988;SDS011;10653;47.052;15.410;2022-12-28T14:06:35;6.80;;;5.60;;
20988;SDS011;10653;47.052;15.410;2022-12-28T14:09:02;8.03;;;5.40;;
20988;SDS011;10653;47.052;15.410;2022-12-28T14:11:28;8.93;;;5.30;;
20988;SDS011;10653;47.052;15.410;2022-12-28T14:13:54;10.40;;;6.40;;
20988;SDS011;10653;47.052;15.410;2022-12-28T14:16:21;6.53;;;5.83;;
20988;SDS011;10653;47.052;15.410;2022-12-28T14:18:48;8.17;;;6.47;;
20988;SDS011;10653;47.052;15.410;2022-12-28T14:21:15;7.00;;;6.00;;
20988;SDS011;10653;47.052;15.410;2022-12-28T14:23:41;7.97;;;5.43;;
20988;SDS011;10653;47.052;15.410;2022-12-28T14:26:08;5.53;;;4.87;;
20988;SDS011;10653;47.052;15.410;2022-12-28T14:28:36;6.87;;;5.40;;
20988;SDS011;10653;47.052;15.410;2022-12-28T14:31:04;8.93;;;5.57;;
20988;SDS011;10653;47.052;15.410;2022-12-28T14:33:32;6.67;;;5.00;;
20988;SDS011;10653;47.052;15.410;2022-12-28T14:35:59;7.07;;;4.67;;
20988;SDS011;10653;47.052;15.410;2022-12-28T14:38:39;8.77;;;5.33;;
20988;SDS011;10653;47.052;15.410;2022-12-28T14:41:06;5.00;;;4.60;;
20988;SDS011;10653;47.052;15.410;2022-12-28T14:43:40;6.60;;;5.60;;
20988;SDS011;10653;47.052;15.410;2022-12-28T14:48:40;6.30;;;5.60;;
20988;SDS011;10653;47.052;15.410;2022-12-28T14:53:40;6.70;;;6.10;;
20988;SDS011;10653;47.052;15.410;2022-12-28T14:56:13;8.40;;;6.73;;
20988;SDS011;10653;47.052;15.410;2022-12-28T15:01:16;8.40;;;6.20;;
20988;SDS011;10653;47.052;15.410;2022-12-28T15:06:20;8.80;;;6.53;;
20988;SDS011;10653;47.052;15.410;2022-12-28T15:08:47;11.03;;;7.10;;
20988;SDS011;10653;47.052;15.410;2022-12-28T15:11:13;11.83;;;8.77;;
20988;SDS011;10653;47.052;15.410;2022-12-28T15:13:39;11.30;;;9.90;;
20988;SDS011;10653;47.052;15.410;2022-12-28T15:16:05;14.17;;;9.40;;
20988;SDS011;10653;47.052;15.410;2022-12-28T15:18:31;12.07;;;8.63;;
20988;SDS011;10653;47.052;15.410;2022-12-28T15:21:01;29.80;;;11.33;;
20988;SDS011;10653;47.052;15.410;2022-12-28T15:23:28;14.80;;;10.83;;
20988;SDS011;10653;47.052;15.410;2022-12-28T15:25:54;21.60;;;11.77;;
20988;SDS011;10653;47.052;15.410;2022-12-28T15:28:20;17.37;;;13.57;;
20988;SDS011;10653;47.052;15.410;2022-12-28T15:30:46;14.80;;;12.53;;
20988;SDS011;10653;47.052;15.410;2022-12-28T15:33:12;19.43;;;13.53;;
20988;SDS011;10653;47.052;15.410;2022-12-28T15:35:38;19.60;;;13.63;;
20988;SDS011;10653;47.052;15.410;2022-12-28T15:38:04;16.83;;;12.63;;
20988;SDS011;10653;47.052;15.410;2022-12-28T15:40:30;19.40;;;12.47;;
20988;SDS011;10653;47.052;15.410;2022-12-28T15:42:56;15.50;;;12.70;;
20988;SDS011;10653;47.052;15.410;2022-12-28T15:45:22;18.40;;;13.57;;
20988;SDS011;10653;47.052;15.410;2022-12-28T15:47:51;21.60;;;16.20;;
20988;SDS011;10653;47.052;15.410;2022-12-28T15:50:17;22.10;;;13.97;;
20988;SDS011;10653;47.052;15.410;2022-12-28T15:52:43;25.73;;;15.70;;
20988;SDS011;10653;47.052;15.410;2022-12-28T15:55:09;19.77;;;14.83;;
20988;SDS011;10653;47.052;15.410;2022-12-28T15:57:35;18.00;;;11.60;;
20988;SDS011;10653;47.052;15.410;2022-12-28T16:00:01;17.67;;;12.17;;
20988;SDS011;10653;47.052;15.410;2022-12-28T16:02:27;16.47;;;11.57;;
20988;SDS011;10653;47.052;15.410;2022-12-28T16:04:54;17.60;;;13.10;;
20988;SDS011;10653;47.052;15.410;2022-12-28T16:07:20;20.10;;;12.27;;
20988;SDS011;10653;47.052;15.410;2022-12-28T16:09:46;22.50;;;14.37;;